Aérodrome :
LOGIN :

S'inscrire | Disclaimer

   EN    FR    IT 

 










Légende :    VFR   VFR Marginal   IFR   IFR Intensif   IFR Très Intensif
Visi : 
Plafond : 
>= 8 km
>= 3000ft
5 à 8 km
1000 à 3000 ft
1500m à 5 km
500 à 1000 ft
800 à 1500m
200 à 500 ft
< 800m
< 200 ft
Symboles :   Orages  Brouillard  Fortes neiges  Fortes précipitations  Vent > 20 kt
SIGMETs :   Divers  Orages  Givrage  Turbulence  Onde Orograph.  Cendres Volcan.







- Altitude de l'aérodrome : 1487 ft
- Code IATA : MUC


EDDM - München Franz Josef Strauss

DERNIER METAR :
  • 142050Z 05003KT 030V090 6000 FEW002 OVC003 05/04 Q1029 NOSIG

METARs EXPIRÉS :
  • 142020Z 09006KT 6000 FEW002 OVC003 05/04 Q1029 NOSIG
  • 141950Z 08005KT 6000 FEW002 OVC003 05/04 Q1029 NOSIG
  • 141920Z 05004KT 6000 FEW002 OVC003 05/04 Q1029 BECMG 4000 BR
  • 141850Z 04005KT 6000 FEW002 OVC003 05/04 Q1029 BECMG 4000 BR
  • 141820Z 08005KT 6000 FEW002 OVC003 05/05 Q1029 BECMG 4000 BR

TAF TAF EDDM
Valide du 14 à 18h jusqu'au 16 à 00h UTC


141700Z 1418/1524 08004KT 6000 OVC003
BECMG 1418/1420 3000 BR
BECMG 1420/1422 1200 BR
BECMG 1422/1424 0600 FG VV001
TEMPO 1501/1508 0300 FG
BECMG 1508/1510 2000 BR BKN003
BECMG 1510/1512 6000 BKN007
BECMG 1512/1514 SCT013
BECMG 1520/1522 BKN010
Pas de NOTAMs connus pour ce terrain.



MET'MAP, la Météo Aéronautique d'un coup d'oeil ! - Copyright ORBIFLY Décembre 2007 - Disclaimer

ORBIFLY MET'MAP TEAM :

Programmation & Développement : Alexandra Zaïnal
Conception & Développement : Baudouin d'Aumeries
Co-Programmation & Développement : Marc-Olivier Méhu
Soutien technique & logistique : Manuel Goepfert

Contact : metmap@orbifly.com




SOURCES & CREDITS :

   NOAA